Time;durP1;ratioP1;P1;durP2;ratioP2;P2;SDS_P1;SDS_P2;PMS_P1;PMS_P2;Temp;Humidity;BMP_temperature;BMP_pressure;BME280_temperature;BME280_humidity;BME280_pressure;Samples;Min_cycle;Max_cycle;Signal;HPM_P1;HPM_P2
2022/08/19 00:01:53;;;;;;;12.60;11.00;;;23.70;99.90;;;;;;4969233;28;20202;-70
2022/08/19 00:04:22;;;;;;;12.57;10.43;;;23.50;99.90;;;;;;4969280;28;20217;-69
2022/08/19 00:06:47;;;;;;;12.40;11.10;;;23.50;99.90;;;;;;4969028;28;20201;-69
2022/08/19 00:09:17;;;;;;;11.65;10.57;;;23.50;99.90;;;;;;4963391;28;20218;-70
2022/08/19 00:11:44;;;;;;;12.98;10.70;;;23.50;99.90;;;;;;4972259;28;20194;-69
2022/08/19 00:14:11;;;;;;;12.63;11.32;;;23.50;99.90;;;;;;4968550;28;20210;-69
2022/08/19 00:16:41;;;;;;;12.48;11.07;;;23.50;99.90;;;;;;4970766;28;20203;-69
2022/08/19 00:19:07;;;;;;;12.68;11.32;;;23.50;99.90;;;;;;4969229;28;20242;-70
2022/08/19 00:21:39;;;;;;;12.23;11.02;;;23.50;99.90;;;;;;4969107;28;20258;-70
2022/08/19 00:24:06;;;;;;;13.48;12.18;;;23.60;99.90;;;;;;4966288;28;20603;-69
2022/08/19 00:26:33;;;;;;;12.05;10.85;;;23.60;99.90;;;;;;4963916;28;20286;-69
2022/08/19 00:28:59;;;;;;;11.40;10.30;;;23.50;99.90;;;;;;4970890;28;20210;-69
2022/08/19 00:31:25;;;;;;;12.10;10.60;;;23.60;99.90;;;;;;4969134;28;20195;-69
2022/08/19 00:33:50;;;;;;;11.95;10.75;;;23.60;99.90;;;;;;4967279;28;20194;-68
2022/08/19 00:36:17;;;;;;;11.77;10.55;;;23.60;99.90;;;;;;4965217;28;20201;-69
2022/08/19 00:38:43;;;;;;;11.15;9.93;;;23.60;99.90;;;;;;4969213;28;20218;-69
2022/08/19 00:41:12;;;;;;;11.40;10.15;;;23.50;99.90;;;;;;4966945;28;20217;-69
2022/08/19 00:43:38;;;;;;;12.02;10.82;;;23.50;99.90;;;;;;4966915;28;20225;-69
2022/08/19 00:46:04;;;;;;;11.43;10.32;;;23.50;99.90;;;;;;4971726;28;20181;-69
2022/08/19 00:48:31;;;;;;;10.95;9.80;;;23.50;99.90;;;;;;4965754;28;20238;-69
2022/08/19 00:50:57;;;;;;;12.40;11.27;;;23.60;99.90;;;;;;4965474;28;20256;-70
2022/08/19 00:53:27;;;;;;;12.85;10.70;;;23.60;99.90;;;;;;4964923;28;20211;-68
2022/08/19 00:55:56;;;;;;;11.95;10.77;;;23.50;99.90;;;;;;4971232;28;20228;-69
2022/08/19 00:58:27;;;;;;;12.73;11.30;;;23.60;99.90;;;;;;4963141;28;20187;-69
2022/08/19 01:00:52;;;;;;;12.48;11.27;;;23.50;99.90;;;;;;4963357;28;20166;-69
2022/08/19 01:03:20;;;;;;;12.15;11.05;;;23.50;99.90;;;;;;4967361;28;20675;-69
2022/08/19 01:05:48;;;;;;;12.43;11.10;;;23.40;99.90;;;;;;4965487;28;20202;-69
2022/08/19 01:08:16;;;;;;;12.77;11.48;;;23.40;99.90;;;;;;4967977;28;20219;-69
2022/08/19 01:10:46;;;;;;;12.07;10.88;;;23.40;99.90;;;;;;4967507;28;20199;-69
2022/08/19 01:13:15;;;;;;;11.32;10.18;;;23.50;99.90;;;;;;4966164;28;20202;-69
2022/08/19 01:15:50;;;;;;;12.07;10.85;;;23.40;99.90;;;;;;4966611;28;20198;-69
2022/08/19 01:18:17;;;;;;;12.23;11.00;;;23.40;99.90;;;;;;4965045;28;20599;-70
2022/08/19 01:20:44;;;;;;;12.75;10.73;;;23.40;99.90;;;;;;4970211;28;20206;-70
2022/08/19 01:23:09;;;;;;;13.02;11.60;;;23.40;99.90;;;;;;4966866;28;20705;-69
2022/08/19 01:25:43;;;;;;;12.00;10.18;;;23.40;99.90;;;;;;4964062;28;20206;-69
2022/08/19 01:28:17;;;;;;;13.27;11.30;;;23.40;99.90;;;;;;4967857;28;20624;-70
2022/08/19 01:30:43;;;;;;;14.20;12.13;;;23.30;99.90;;;;;;4971072;28;20224;-69
2022/08/19 01:33:09;;;;;;;12.27;10.98;;;23.30;99.90;;;;;;4965043;28;20228;-71
2022/08/19 01:35:35;;;;;;;13.45;12.02;;;23.20;99.90;;;;;;4963292;28;20680;-69
2022/08/19 01:38:09;;;;;;;11.75;10.68;;;23.20;99.90;;;;;;4969706;28;20202;-69
2022/08/19 01:40:38;;;;;;;13.25;11.32;;;23.20;99.90;;;;;;4966028;28;20212;-69
2022/08/19 01:43:05;;;;;;;13.05;10.82;;;23.20;99.90;;;;;;4963986;28;20178;-69
2022/08/19 01:45:33;;;;;;;13.90;11.68;;;23.20;99.90;;;;;;4968569;28;20198;-69
2022/08/19 01:48:00;;;;;;;12.90;11.60;;;23.20;99.90;;;;;;4968383;28;20217;-69
2022/08/19 01:50:27;;;;;;;14.02;12.13;;;23.20;99.90;;;;;;4963327;28;20258;-69
2022/08/19 01:52:53;;;;;;;13.57;11.07;;;23.20;99.90;;;;;;4964406;28;20233;-69
2022/08/19 01:55:20;;;;;;;13.80;11.43;;;23.10;99.90;;;;;;4970053;28;20182;-71
2022/08/19 01:57:51;;;;;;;13.07;11.77;;;23.00;99.90;;;;;;4965461;28;20178;-69
2022/08/19 02:00:19;;;;;;;13.50;11.82;;;22.90;99.90;;;;;;4961836;28;20202;-70
2022/08/19 02:02:45;;;;;;;15.52;12.48;;;22.90;99.90;;;;;;4970295;28;20210;-70
2022/08/19 02:05:11;;;;;;;13.18;11.73;;;23.00;99.90;;;;;;4967385;28;20296;-69
2022/08/19 02:07:38;;;;;;;14.00;12.57;;;22.90;99.90;;;;;;4964486;28;20207;-69
2022/08/19 02:10:11;;;;;;;12.98;11.68;;;22.90;99.90;;;;;;4964554;28;20178;-69
2022/08/19 02:12:36;;;;;;;14.18;11.82;;;22.80;99.90;;;;;;4969418;28;20218;-69
2022/08/19 02:15:03;;;;;;;13.98;12.02;;;22.90;99.90;;;;;;4969561;28;20632;-68
2022/08/19 02:17:29;;;;;;;17.80;12.80;;;22.90;99.90;;;;;;4962006;28;20218;-69
2022/08/19 02:19:58;;;;;;;15.13;13.15;;;22.80;99.90;;;;;;4969965;28;20210;-69
2022/08/19 02:22:25;;;;;;;15.10;12.18;;;22.80;99.90;;;;;;4966438;28;20593;-69
2022/08/19 02:24:54;;;;;;;14.55;12.18;;;22.80;99.90;;;;;;4967445;28;20256;-69
2022/08/19 02:27:21;;;;;;;16.05;12.95;;;22.80;99.90;;;;;;4966016;28;20286;-68
2022/08/19 02:29:48;;;;;;;13.20;11.80;;;22.60;99.90;;;;;;4968338;28;20213;-69
2022/08/19 02:32:14;;;;;;;15.23;12.30;;;22.60;99.90;;;;;;4964918;28;20199;-69
2022/08/19 02:34:40;;;;;;;13.52;12.13;;;22.50;99.90;;;;;;4963520;28;20206;-68
2022/08/19 02:38:24;;;;;;;15.80;12.48;;;22.40;99.90;;;;;;4967266;28;20632;-68
2022/08/19 02:39:52;;;;;;;16.42;13.68;;;22.30;99.90;;;;;;4967160;28;20210;-68
2022/08/19 02:42:17;;;;;;;14.13;12.68;;;22.30;99.90;;;;;;4966789;28;20214;-69
2022/08/19 02:44:43;;;;;;;15.52;12.13;;;22.30;99.90;;;;;;4966215;28;20221;-69
2022/08/19 02:47:09;;;;;;;14.93;12.63;;;22.30;99.90;;;;;;4964676;28;20203;-69
2022/08/19 02:49:35;;;;;;;12.52;11.15;;;22.30;99.90;;;;;;4965437;28;20206;-68
2022/08/19 02:52:01;;;;;;;13.38;12.05;;;22.30;99.90;;;;;;4963806;28;20252;-69
2022/08/19 02:54:27;;;;;;;16.27;14.50;;;22.40;99.90;;;;;;4967327;28;20210;-69
2022/08/19 02:56:53;;;;;;;14.07;12.57;;;22.40;99.90;;;;;;4967393;28;20206;-68
2022/08/19 02:59:18;;;;;;;15.27;13.75;;;22.40;99.90;;;;;;4962153;28;20211;-69
2022/08/19 03:01:45;;;;;;;17.30;13.40;;;22.40;99.90;;;;;;4966322;28;20281;-68
2022/08/19 03:04:13;;;;;;;16.58;14.63;;;22.40;99.90;;;;;;4963911;28;20218;-69
2022/08/19 03:06:43;;;;;;;14.45;13.05;;;22.40;99.90;;;;;;4990942;23;20233;-68
2022/08/19 03:09:09;;;;;;;17.17;14.75;;;22.40;99.90;;;;;;4969816;28;20214;-68
2022/08/19 03:11:35;;;;;;;16.15;14.43;;;22.30;99.90;;;;;;4972416;28;20225;-68
2022/08/19 03:14:02;;;;;;;18.70;15.38;;;22.20;99.90;;;;;;4967266;28;20673;-68
2022/08/19 03:16:31;;;;;;;17.33;14.70;;;22.30;99.90;;;;;;4952384;28;20246;-68
2022/08/19 03:19:00;;;;;;;15.38;13.60;;;22.20;99.90;;;;;;4955044;28;20849;-68
2022/08/19 03:21:28;;;;;;;14.60;13.20;;;22.20;99.90;;;;;;4954731;28;20209;-68
2022/08/19 03:23:54;;;;;;;16.20;13.85;;;22.20;99.90;;;;;;4954698;28;20333;-67
2022/08/19 03:26:20;;;;;;;15.98;13.63;;;22.20;99.90;;;;;;4954391;28;20298;-68
2022/08/19 03:28:49;;;;;;;17.17;13.57;;;22.20;99.90;;;;;;4947321;28;20651;-68
2022/08/19 03:31:17;;;;;;;14.85;13.25;;;22.20;99.90;;;;;;4954843;28;20199;-68
2022/08/19 03:33:43;;;;;;;14.95;13.45;;;22.20;99.90;;;;;;4954772;28;20179;-68
2022/08/19 03:36:16;;;;;;;14.88;13.40;;;22.10;99.90;;;;;;4954473;28;20235;-67
2022/08/19 03:38:48;;;;;;;15.82;14.27;;;22.10;99.90;;;;;;4953726;28;20214;-67
2022/08/19 03:41:36;;;;;;;17.38;15.38;;;22.10;99.90;;;;;;4954701;28;20218;-67
2022/08/19 03:44:04;;;;;;;17.10;15.15;;;22.20;99.90;;;;;;4954189;28;20222;-67
2022/08/19 03:46:32;;;;;;;16.58;14.40;;;22.10;99.90;;;;;;4954010;28;20219;-67
2022/08/19 03:48:59;;;;;;;17.23;15.38;;;22.10;99.90;;;;;;4954665;28;20250;-67
2022/08/19 03:51:25;;;;;;;16.73;14.82;;;22.10;99.90;;;;;;4951498;28;20206;-67
2022/08/19 03:53:52;;;;;;;16.15;14.27;;;22.10;99.90;;;;;;4954688;28;20277;-67
2022/08/19 03:56:17;;;;;;;15.10;13.50;;;22.00;99.90;;;;;;4953890;28;20605;-67
2022/08/19 03:58:44;;;;;;;16.95;14.23;;;22.00;99.90;;;;;;4953934;28;20199;-67
2022/08/19 04:01:12;;;;;;;14.43;13.02;;;22.00;99.90;;;;;;4954125;28;20183;-68
2022/08/19 04:03:39;;;;;;;15.63;13.60;;;22.00;99.90;;;;;;4955149;28;20572;-67
2022/08/19 04:06:14;;;;;;;16.90;14.90;;;22.00;99.90;;;;;;4954001;28;20210;-67
2022/08/19 04:08:42;;;;;;;15.65;14.13;;;22.00;99.90;;;;;;4953589;28;20206;-67
2022/08/19 04:11:09;;;;;;;17.77;14.02;;;22.00;99.90;;;;;;4953960;28;20207;-68
2022/08/19 04:13:35;;;;;;;15.02;13.43;;;22.00;99.90;;;;;;4953650;28;20233;-67
2022/08/19 04:16:01;;;;;;;16.40;13.90;;;22.00;99.90;;;;;;4953125;28;20695;-67
2022/08/19 04:18:29;;;;;;;14.93;13.48;;;22.10;99.90;;;;;;4952317;28;20211;-67
2022/08/19 04:20:55;;;;;;;16.75;14.52;;;22.10;99.90;;;;;;4952400;28;20659;-67
2022/08/19 04:23:20;;;;;;;16.30;14.30;;;22.10;99.90;;;;;;4950554;28;20298;-67
2022/08/19 04:25:46;;;;;;;15.68;14.07;;;22.00;99.90;;;;;;4953780;28;20214;-68
2022/08/19 04:28:13;;;;;;;14.52;13.07;;;22.00;99.90;;;;;;4951977;28;20171;-68
2022/08/19 04:30:44;;;;;;;15.02;13.50;;;22.10;99.90;;;;;;4952998;28;20222;-67
2022/08/19 04:33:10;;;;;;;14.98;13.43;;;22.10;99.90;;;;;;4953748;28;20262;-67
2022/08/19 04:35:39;;;;;;;17.55;13.98;;;22.10;99.90;;;;;;4960734;28;20214;-68
2022/08/19 04:38:05;;;;;;;14.68;13.15;;;22.10;99.90;;;;;;4953196;28;20712;-68
2022/08/19 04:43:15;;;;;;;14.65;12.60;;;22.20;99.90;;;;;;4951923;28;20262;-68
2022/08/19 04:45:43;;;;;;;14.55;13.00;;;22.10;99.90;;;;;;4953850;28;20739;-67
2022/08/19 04:48:09;;;;;;;14.68;13.15;;;22.10;99.90;;;;;;4949792;28;20211;-68
2022/08/19 04:50:35;;;;;;;16.55;14.52;;;22.20;99.90;;;;;;4953351;28;20195;-68
2022/08/19 04:53:00;;;;;;;12.85;11.65;;;22.30;99.90;;;;;;4953454;28;20728;-68
2022/08/19 04:55:26;;;;;;;14.18;12.40;;;22.40;99.90;;;;;;4951371;28;20675;-68
2022/08/19 04:57:52;;;;;;;13.25;11.85;;;22.50;99.90;;;;;;4953565;28;20659;-68
2022/08/19 05:00:18;;;;;;;12.73;11.13;;;22.60;99.90;;;;;;4953253;28;20262;-68
2022/08/19 05:02:43;;;;;;;14.02;11.93;;;22.70;99.90;;;;;;4953182;28;20199;-68
2022/08/19 05:05:09;;;;;;;12.52;11.23;;;23.20;99.90;;;;;;4952804;28;20802;-68
2022/08/19 05:07:35;;;;;;;11.52;10.32;;;24.30;99.90;;;;;;4960665;28;20754;-68
2022/08/19 05:10:04;;;;;;;11.18;10.05;;;25.30;99.90;;;;;;4953146;28;20250;-68
2022/08/19 05:12:29;;;;;;;10.45;9.32;;;26.20;99.90;;;;;;4952727;28;20229;-68
2022/08/19 05:14:57;;;;;;;10.43;9.32;;;26.70;99.90;;;;;;4952750;28;20664;-68
2022/08/19 05:17:22;;;;;;;14.18;9.48;;;27.00;99.90;;;;;;4952709;28;20210;-68
2022/08/19 05:22:34;;;;;;;9.50;8.52;;;27.80;99.90;;;;;;4952886;28;20223;-68
2022/08/19 05:25:07;;;;;;;10.65;9.57;;;28.40;99.90;;;;;;4950054;28;20226;-68
2022/08/19 05:27:34;;;;;;;9.15;8.23;;;28.80;99.90;;;;;;4953027;28;20709;-68
2022/08/19 05:30:00;;;;;;;12.77;9.38;;;28.30;99.90;;;;;;4952418;28;20259;-68
2022/08/19 05:32:25;;;;;;;9.45;8.55;;;28.30;99.90;;;;;;4952232;28;20739;-68
2022/08/19 05:34:51;;;;;;;11.60;10.48;;;28.30;99.90;;;;;;4952037;28;20298;-68
2022/08/19 05:37:17;;;;;;;11.43;9.07;;;28.50;99.90;;;;;;4959828;28;20230;-69
2022/08/19 05:39:43;;;;;;;9.30;8.50;;;28.30;99.90;;;;;;4952823;28;20167;-68
2022/08/19 05:42:10;;;;;;;10.27;9.27;;;27.40;99.90;;;;;;4952391;28;20311;-67
2022/08/19 05:44:43;;;;;;;10.25;9.18;;;26.90;99.90;;;;;;4952739;28;20218;-68
2022/08/19 05:47:10;;;;;;;10.68;8.95;;;26.30;99.90;;;;;;4951227;28;20222;-68
2022/08/19 05:49:36;;;;;;;10.02;9.05;;;25.90;99.90;;;;;;4959317;28;20262;-68
2022/08/19 05:52:10;;;;;;;10.55;9.50;;;25.90;99.90;;;;;;4951728;28;20269;-68
2022/08/19 05:54:39;;;;;;;11.65;9.80;;;25.80;99.90;;;;;;4961038;28;20206;-68
2022/08/19 05:57:05;;;;;;;10.55;9.55;;;25.60;99.90;;;;;;4968368;28;20206;-68
2022/08/19 05:59:31;;;;;;;11.60;10.05;;;25.70;99.90;;;;;;4970986;28;20663;-68
2022/08/19 06:01:57;;;;;;;13.80;10.20;;;25.70;99.90;;;;;;4971367;28;20203;-67
2022/08/19 06:04:23;;;;;;;12.10;10.82;;;25.90;99.90;;;;;;4971412;28;20205;-68
2022/08/19 06:06:51;;;;;;;12.35;10.57;;;26.00;99.90;;;;;;4970692;28;20216;-68
2022/08/19 06:09:17;;;;;;;11.18;10.10;;;25.80;99.90;;;;;;4971707;28;20209;-68
2022/08/19 06:11:53;;;;;;;11.38;10.10;;;25.50;99.90;;;;;;4971445;28;20533;-69
2022/08/19 06:14:23;;;;;;;11.10;10.10;;;25.30;99.90;;;;;;4971532;28;20210;-67
2022/08/19 06:16:51;;;;;;;11.43;10.32;;;25.20;99.90;;;;;;4970440;28;20216;-67
2022/08/19 06:19:19;;;;;;;11.93;10.70;;;25.10;99.90;;;;;;4971301;28;20174;-67
2022/08/19 06:21:47;;;;;;;12.65;10.32;;;25.20;99.90;;;;;;4971948;28;20202;-67
2022/08/19 06:24:14;;;;;;;13.55;11.85;;;25.20;99.90;;;;;;4971384;28;20222;-67
2022/08/19 06:26:43;;;;;;;13.23;9.77;;;25.40;99.90;;;;;;4971429;28;20214;-69
2022/08/19 06:29:10;;;;;;;13.48;10.65;;;25.90;99.90;;;;;;4971903;28;20202;-68
2022/08/19 06:31:36;;;;;;;11.57;10.10;;;26.00;99.90;;;;;;4982409;28;20218;-68
2022/08/19 06:34:03;;;;;;;12.50;11.15;;;26.10;99.90;;;;;;4987095;28;20212;-68
2022/08/19 06:36:35;;;;;;;11.98;10.82;;;26.00;99.90;;;;;;4978496;28;20214;-68
2022/08/19 06:39:06;;;;;;;12.30;10.85;;;25.80;99.90;;;;;;4972018;28;20297;-68
2022/08/19 06:41:38;;;;;;;11.93;10.73;;;25.60;99.90;;;;;;4969158;28;20213;-68
2022/08/19 06:44:04;;;;;;;13.25;12.00;;;25.40;99.90;;;;;;4971706;28;20221;-68
2022/08/19 06:46:30;;;;;;;13.43;12.05;;;25.50;99.90;;;;;;4972787;28;20281;-68
2022/08/19 06:48:57;;;;;;;13.65;12.23;;;25.30;99.90;;;;;;4975561;28;20237;-68
2022/08/19 06:51:23;;;;;;;13.85;12.30;;;24.90;99.90;;;;;;4974978;28;20207;-68
2022/08/19 06:53:51;;;;;;;14.32;12.85;;;24.90;99.90;;;;;;4975094;28;20301;-68
2022/08/19 06:56:20;;;;;;;13.52;12.20;;;24.80;99.90;;;;;;4973647;28;20224;-67
2022/08/19 06:58:46;;;;;;;14.73;13.35;;;24.60;99.90;;;;;;4972481;28;20573;-67
2022/08/19 07:01:12;;;;;;;14.35;12.95;;;24.60;99.90;;;;;;4975223;28;20190;-68
2022/08/19 07:03:39;;;;;;;15.77;13.82;;;24.60;99.90;;;;;;4975237;28;20206;-68
2022/08/19 07:06:07;;;;;;;15.45;13.35;;;24.60;99.90;;;;;;4972534;28;20691;-68
2022/08/19 07:08:34;;;;;;;15.52;13.85;;;24.60;99.90;;;;;;4974492;28;20695;-68
2022/08/19 07:10:59;;;;;;;15.13;13.43;;;24.60;99.90;;;;;;4974914;28;20578;-68
2022/08/19 07:13:25;;;;;;;15.55;14.02;;;24.60;99.90;;;;;;4974400;28;20170;-68
2022/08/19 07:15:51;;;;;;;14.85;13.35;;;24.70;99.90;;;;;;4975308;28;20228;-68
2022/08/19 07:18:19;;;;;;;15.90;13.25;;;24.80;99.90;;;;;;4974255;28;20210;-68
2022/08/19 07:20:45;;;;;;;15.93;14.25;;;24.80;99.90;;;;;;4974463;28;20202;-68
2022/08/19 07:23:11;;;;;;;15.25;13.75;;;24.80;99.90;;;;;;4973032;28;20202;-68
2022/08/19 07:25:38;;;;;;;15.48;13.25;;;25.00;99.90;;;;;;4974522;28;20210;-68
2022/08/19 07:28:04;;;;;;;14.68;13.27;;;25.20;99.90;;;;;;4973290;28;20301;-68
2022/08/19 07:30:30;;;;;;;16.38;13.55;;;25.10;99.90;;;;;;4973257;28;20229;-68
2022/08/19 07:32:56;;;;;;;14.95;13.20;;;25.20;99.90;;;;;;4974667;28;20683;-68
2022/08/19 07:35:23;;;;;;;13.95;12.65;;;25.30;99.90;;;;;;4972838;28;20202;-68
2022/08/19 07:37:49;;;;;;;15.38;13.82;;;25.30;99.90;;;;;;4973934;28;20264;-68
2022/08/19 07:40:15;;;;;;;15.40;13.85;;;25.30;99.90;;;;;;4972439;28;20269;-69
2022/08/19 07:42:41;;;;;;;15.75;14.02;;;25.20;99.90;;;;;;4973981;28;21158;-68
2022/08/19 07:45:07;;;;;;;16.00;14.43;;;25.20;99.90;;;;;;4974004;28;20707;-68
2022/08/19 07:47:33;;;;;;;16.50;14.93;;;25.20;99.90;;;;;;4973605;28;20198;-67
2022/08/19 07:49:59;;;;;;;16.70;14.75;;;25.20;99.90;;;;;;4973523;28;20202;-69
2022/08/19 07:52:25;;;;;;;16.27;14.68;;;25.00;99.90;;;;;;4973381;28;20220;-69
2022/08/19 07:54:50;;;;;;;16.98;15.38;;;25.00;99.90;;;;;;4974193;28;20178;-67
2022/08/19 07:57:18;;;;;;;17.88;15.27;;;24.90;99.90;;;;;;4971894;28;20270;-68
2022/08/19 07:59:44;;;;;;;39.47;18.60;;;24.90;99.90;;;;;;4973164;28;20210;-68
2022/08/19 08:02:10;;;;;;;22.15;16.67;;;25.00;99.90;;;;;;4973664;28;20586;-67
2022/08/19 08:10:06;;;;;;;18.60;16.75;;;25.10;99.90;;;;;;4972117;28;20646;-67
2022/08/19 08:12:40;;;;;;;20.05;17.77;;;24.90;99.90;;;;;;4972283;28;20341;-67
2022/08/19 08:15:09;;;;;;;20.38;17.75;;;24.90;99.90;;;;;;4970581;28;20219;-67
2022/08/19 08:17:36;;;;;;;17.40;15.60;;;24.80;99.90;;;;;;4973269;28;20198;-67
2022/08/19 08:20:06;;;;;;;16.92;15.15;;;24.90;99.90;;;;;;4973078;28;20214;-67
2022/08/19 08:25:19;;;;;;;18.05;16.17;;;24.90;99.90;;;;;;4971919;28;20245;-68
2022/08/19 08:27:45;;;;;;;18.60;16.70;;;24.90;99.90;;;;;;4973287;28;20578;-68
2022/08/19 08:30:17;;;;;;;19.02;17.08;;;24.90;99.90;;;;;;4969375;28;20206;-68
2022/08/19 08:32:43;;;;;;;16.65;14.95;;;25.00;99.90;;;;;;4972783;28;20198;-69
2022/08/19 08:35:12;;;;;;;18.27;15.38;;;24.90;99.90;;;;;;4973001;28;20217;-69
2022/08/19 08:37:38;;;;;;;19.77;17.77;;;24.90;99.90;;;;;;4972994;28;20333;-69
2022/08/19 08:40:19;;;;;;;17.38;15.68;;;24.90;99.90;;;;;;4971570;28;20209;-69
2022/08/19 08:43:04;;;;;;;18.13;16.23;;;24.70;99.90;;;;;;4973244;28;20238;-68
2022/08/19 08:45:32;;;;;;;17.50;15.60;;;24.70;99.90;;;;;;4970527;28;20224;-68
2022/08/19 08:48:03;;;;;;;18.27;16.38;;;24.80;99.90;;;;;;4967143;28;20309;-67
2022/08/19 08:50:35;;;;;;;19.30;16.80;;;24.70;99.90;;;;;;4961567;28;20205;-68
2022/08/19 08:53:02;;;;;;;18.27;16.38;;;24.80;99.90;;;;;;4953549;28;20680;-68
2022/08/19 08:55:29;;;;;;;19.88;18.02;;;24.80;99.90;;;;;;4953368;28;20298;-68
2022/08/19 08:58:03;;;;;;;20.25;18.13;;;24.70;99.90;;;;;;4953722;28;20175;-67
2022/08/19 09:00:34;;;;;;;19.27;17.38;;;24.60;99.90;;;;;;4951115;28;20270;-67
2022/08/19 09:03:02;;;;;;;19.73;17.73;;;24.60;99.90;;;;;;4953323;28;20210;-68
2022/08/19 09:05:48;;;;;;;17.58;15.88;;;24.50;99.90;;;;;;4953152;28;20219;-68
2022/08/19 09:10:52;;;;;;;18.33;16.25;;;24.60;99.90;;;;;;4988800;23;20226;-68
2022/08/19 09:13:33;;;;;;;17.65;15.85;;;24.60;99.90;;;;;;4977054;28;20178;-69
2022/08/19 09:16:09;;;;;;;17.02;15.10;;;24.70;99.90;;;;;;4981943;28;20541;-69
2022/08/19 09:18:40;;;;;;;18.08;15.63;;;24.80;99.90;;;;;;4972041;28;20224;-69
2022/08/19 09:21:08;;;;;;;17.70;15.85;;;24.90;99.90;;;;;;4988092;28;20629;-69
2022/08/19 09:23:35;;;;;;;19.92;17.92;;;25.10;99.90;;;;;;4988587;28;20237;-69
2022/08/19 09:26:01;;;;;;;19.52;17.60;;;25.20;99.90;;;;;;4991783;28;20197;-69
2022/08/19 09:28:27;;;;;;;17.50;15.52;;;25.60;99.90;;;;;;4990911;28;20214;-70
2022/08/19 09:30:53;;;;;;;15.57;14.18;;;25.90;99.90;;;;;;4992185;28;20162;-70
2022/08/19 09:33:19;;;;;;;16.50;14.73;;;26.10;99.90;;;;;;4991648;28;20251;-69
2022/08/19 09:35:46;;;;;;;33.78;15.63;;;26.00;99.90;;;;;;4991363;28;20269;-72
2022/08/19 09:38:11;;;;;;;17.20;15.20;;;26.00;99.90;;;;;;4989727;28;20198;-69
2022/08/19 09:40:37;;;;;;;21.85;13.65;;;26.10;99.90;;;;;;4998862;28;20244;-69
2022/08/19 09:43:02;;;;;;;16.52;14.52;;;26.20;99.90;;;;;;4991758;28;20189;-69
2022/08/19 09:45:28;;;;;;;16.40;14.73;;;26.30;99.90;;;;;;4991156;28;20206;-69
2022/08/19 09:47:54;;;;;;;15.80;14.20;;;26.20;99.90;;;;;;4991316;28;20271;-68
2022/08/19 09:50:21;;;;;;;15.93;14.32;;;26.00;99.90;;;;;;4991092;28;20682;-67
2022/08/19 09:52:47;;;;;;;16.98;15.25;;;26.10;99.90;;;;;;4991238;28;20553;-68
2022/08/19 09:55:13;;;;;;;16.02;14.48;;;26.20;99.90;;;;;;4987601;28;20252;-68
2022/08/19 09:57:39;;;;;;;17.23;15.52;;;26.30;99.90;;;;;;4991487;28;20332;-68
2022/08/19 10:00:08;;;;;;;18.08;15.27;;;26.30;99.90;;;;;;4990854;28;20355;-70
2022/08/19 10:02:34;;;;;;;16.80;15.07;;;26.10;99.90;;;;;;4990791;28;20796;-67
2022/08/19 10:07:44;;;;;;;16.02;14.30;;;26.00;99.90;;;;;;4990850;28;20209;-70
2022/08/19 10:10:10;;;;;;;16.90;15.30;;;25.90;99.90;;;;;;4990796;28;20225;-70
2022/08/19 10:12:36;;;;;;;19.65;14.40;;;25.90;99.90;;;;;;4988754;28;20294;-69
2022/08/19 10:15:04;;;;;;;16.45;14.77;;;26.00;99.90;;;;;;4990984;28;20280;-70
2022/08/19 10:17:29;;;;;;;21.55;18.17;;;25.90;99.90;;;;;;4990617;28;21100;-70
2022/08/19 10:19:55;;;;;;;16.63;14.93;;;25.90;99.90;;;;;;4990221;28;20328;-72
2022/08/19 10:22:20;;;;;;;16.75;15.05;;;26.30;99.90;;;;;;4998390;28;20594;-72
2022/08/19 10:24:46;;;;;;;15.68;13.95;;;26.50;99.90;;;;;;4994571;28;20698;-71
2022/08/19 10:27:13;;;;;;;14.73;13.27;;;26.70;99.90;;;;;;4995080;28;20209;-72
2022/08/19 10:29:39;;;;;;;14.85;13.35;;;26.70;99.90;;;;;;4994438;28;20292;-72
2022/08/19 10:32:08;;;;;;;17.63;14.18;;;26.70;99.90;;;;;;4994753;28;20210;-73
2022/08/19 10:34:35;;;;;;;14.75;13.25;;;26.70;99.90;;;;;;4994309;28;20205;-72
2022/08/19 10:37:04;;;;;;;14.80;13.38;;;26.70;99.90;;;;;;4993548;28;20197;-72
2022/08/19 10:39:34;;;;;;;15.80;14.07;;;26.70;99.90;;;;;;4982719;28;20206;-70
2022/08/19 10:42:05;;;;;;;15.82;14.27;;;26.50;99.90;;;;;;4984151;28;20221;-70
2022/08/19 10:44:32;;;;;;;15.00;13.50;;;26.40;99.90;;;;;;5002365;28;20209;-72
2022/08/19 10:46:58;;;;;;;15.82;14.23;;;26.30;99.90;;;;;;4994620;28;20284;-70
2022/08/19 10:49:24;;;;;;;15.40;13.90;;;26.10;99.90;;;;;;4994080;28;20224;-71
2022/08/19 10:57:18;;;;;;;17.27;15.50;;;25.60;99.90;;;;;;4992322;28;20271;-74
2022/08/19 10:59:44;;;;;;;17.52;15.35;;;25.50;99.90;;;;;;4993835;28;20289;-71
2022/08/19 11:02:11;;;;;;;17.80;15.52;;;25.30;99.90;;;;;;4994244;28;20209;-71
2022/08/19 11:04:39;;;;;;;15.88;14.23;;;25.20;99.90;;;;;;4993950;28;20221;-71
2022/08/19 11:07:05;;;;;;;16.55;14.93;;;25.20;99.90;;;;;;4994997;28;20181;-71
2022/08/19 11:09:37;;;;;;;15.90;14.38;;;25.20;99.90;;;;;;5003330;28;20304;-71
2022/08/19 11:12:03;;;;;;;16.92;15.23;;;25.20;99.90;;;;;;4994049;28;20214;-71
2022/08/19 11:14:32;;;;;;;16.45;14.25;;;25.20;99.90;;;;;;4993891;28;20753;-70
2022/08/19 11:16:58;;;;;;;16.63;14.93;;;25.10;99.90;;;;;;4990321;28;20655;-71
2022/08/19 11:19:23;;;;;;;14.93;13.48;;;25.10;99.90;;;;;;4992076;28;20312;-71
2022/08/19 11:21:50;;;;;;;15.48;13.98;;;25.20;99.90;;;;;;4995204;28;20178;-70
2022/08/19 11:24:22;;;;;;;14.02;12.43;;;25.30;99.90;;;;;;4992565;28;21825;-72
2022/08/19 11:26:51;;;;;;;14.80;13.15;;;25.40;99.90;;;;;;4988519;28;20229;-70
2022/08/19 11:29:20;;;;;;;15.45;13.80;;;25.30;99.90;;;;;;4983309;28;20210;-72
2022/08/19 11:31:47;;;;;;;15.00;13.55;;;25.30;99.90;;;;;;4999339;28;20209;-70
2022/08/19 11:34:17;;;;;;;13.98;12.60;;;25.30;99.90;;;;;;4995908;28;20180;-70
2022/08/19 11:36:45;;;;;;;14.30;12.88;;;25.30;99.90;;;;;;4992631;28;20173;-70
2022/08/19 11:39:14;;;;;;;16.15;12.88;;;25.30;99.90;;;;;;4988608;28;20202;-70
2022/08/19 11:41:40;;;;;;;14.88;12.52;;;25.30;99.90;;;;;;4993366;28;20708;-70
2022/08/19 11:44:07;;;;;;;13.68;12.35;;;25.30;99.90;;;;;;4993354;28;20225;-72
2022/08/19 11:46:34;;;;;;;14.98;12.75;;;25.20;99.90;;;;;;4992748;28;20284;-71
2022/08/19 11:49:02;;;;;;;13.57;12.15;;;25.00;99.90;;;;;;4992123;28;20252;-72
2022/08/19 11:51:29;;;;;;;13.32;12.05;;;25.00;99.90;;;;;;4991052;28;20602;-72
2022/08/19 11:53:56;;;;;;;13.27;11.88;;;25.00;99.90;;;;;;4993571;28;20209;-71
2022/08/19 11:56:22;;;;;;;13.98;12.68;;;25.00;99.90;;;;;;4993242;28;20201;-69
2022/08/19 11:58:48;;;;;;;17.17;13.10;;;25.00;99.90;;;;;;4991780;28;20209;-70
2022/08/19 12:01:17;;;;;;;14.35;12.85;;;25.00;99.90;;;;;;4993199;28;20173;-70
2022/08/19 12:03:45;;;;;;;14.63;13.10;;;25.10;99.90;;;;;;4999710;28;20193;-72
2022/08/19 12:06:15;;;;;;;14.57;11.55;;;25.20;99.90;;;;;;4993210;28;20698;-73
2022/08/19 12:08:42;;;;;;;12.95;11.68;;;25.40;99.90;;;;;;4992458;28;20247;-71
2022/08/19 12:11:09;;;;;;;13.00;11.70;;;25.50;99.90;;;;;;4991786;28;20201;-71
2022/08/19 12:13:36;;;;;;;11.45;10.35;;;25.40;99.90;;;;;;4992627;28;20205;-72
2022/08/19 12:16:12;;;;;;;12.82;11.38;;;25.40;99.90;;;;;;4989844;28;20646;-72
2022/08/19 12:18:43;;;;;;;15.73;10.32;;;25.50;99.90;;;;;;4992832;28;20333;-71
2022/08/19 12:21:10;;;;;;;10.77;9.77;;;25.30;99.90;;;;;;4992853;28;20205;-71
2022/08/19 12:23:37;;;;;;;11.60;10.48;;;25.30;99.90;;;;;;4991505;28;20205;-73
2022/08/19 12:26:03;;;;;;;10.30;9.38;;;25.30;99.90;;;;;;4992658;28;20206;-72
2022/08/19 12:28:29;;;;;;;10.90;9.80;;;25.30;99.90;;;;;;4992360;28;20201;-72
2022/08/19 12:30:56;;;;;;;10.07;9.15;;;25.40;99.90;;;;;;4992887;28;20174;-71
2022/08/19 12:33:24;;;;;;;12.40;11.10;;;25.40;99.90;;;;;;4992561;28;20205;-71
2022/08/19 12:35:50;;;;;;;11.13;10.13;;;25.30;99.90;;;;;;4992494;28;20566;-70
2022/08/19 12:38:16;;;;;;;11.18;10.13;;;25.50;99.90;;;;;;4992281;28;20206;-72
2022/08/19 12:40:45;;;;;;;9.85;8.90;;;25.80;99.90;;;;;;4992187;28;20213;-72
2022/08/19 12:43:11;;;;;;;9.80;8.85;;;26.20;99.90;;;;;;4991585;28;20639;-72
2022/08/19 12:45:37;;;;;;;9.70;8.02;;;26.50;99.90;;;;;;5000004;28;20202;-70
2022/08/19 12:48:04;;;;;;;11.15;10.05;;;26.70;99.90;;;;;;4996332;28;20305;-68
2022/08/19 12:50:30;;;;;;;10.00;8.70;;;26.70;99.90;;;;;;4992268;28;20225;-70
2022/08/19 12:52:56;;;;;;;10.18;8.98;;;26.80;99.90;;;;;;4991113;28;20224;-72
2022/08/19 12:55:22;;;;;;;9.65;8.65;;;26.80;99.90;;;;;;4992240;28;20240;-71